Scampton, United Kingdom
Current Conditions -  °F | °C
As of 7:50 PM on Tuesday 25 Nov 2014 (Local Time) from EGXP Reporting Station
Broken Clouds Broken Clouds  
Wind Chill: 38°   Ceiling: 2800
Heat Index: 43°   Visibility: 3mi
Dew Point: 43°   Wind: 8mph
Humidity: 100%   Direction: 30°NNE
Pressure: 30.12"   Gusts: NA
Location:  53.3°N, 0.58°W
Report Text: EGXP 251950Z AUTO 03007KT 4900 // FEW017/// BKN028/// 06/06 Q1020
Loading
Personal Weather Stations






























Interactive Weather Map New forecast layout! Learn more

10-Day Weather Forecast

Advertisements
Track Severe Weather on mobile